Página principal
METAR-TAF:

METAR-TAF

Aeroportos :

El Aaiún, Marrocos

latitude: 27-10N, longitude: 013-12-59W, altura: 6 m

METAR: em falta

Hora: 23:51 (23:51 UTC)

Previsão

O boletim foi feito há 51 minutos, às 23:00 UTC
Previsão válida de 16 às 00 UTC a 17 às 06 UTC
Vento 11 kt de norte
Visibilidade 10 km ou mais
sem nuvens abaixo de 1500 metros e sem cumulonimbus

TAF: GMML 152300Z 1600/1706 01011KT CAVOK

Observações e previsões do tempo de mais de 4000 aeroportos (mensagens METAR e TAF).

As estações disponíveis são os pontos amarelos e vermelhos sobre o mapa.

Mova o rato sobre o mapa para ver o nome da estação.

Depois clique no ponto para visualizar as observações e previsões meteorológicas.

Para alterar o mapa : clique nos botões verdes com uma cruz preta para aumentar o zoom; no botão verde com uma pitada de zoom; ou nas setas verdes para mapas adjacentes.


METAR-TAF: